createdAt,value
2023-04-15T00:00:17.653Z,65.91
2023-04-15T00:01:20.573Z,66.09
2023-04-15T00:02:24.111Z,66.15
2023-04-15T00:04:00.792Z,66.29
2023-04-15T00:05:04.542Z,66.46
2023-04-15T00:06:07.680Z,66.52
2023-04-15T00:07:42.363Z,66.72
2023-04-15T00:08:45.283Z,66.84
2023-04-15T00:09:48.760Z,66.85
2023-04-15T00:11:23.375Z,67.00
2023-04-15T00:12:26.109Z,66.99
2023-04-15T00:13:29.174Z,67.13
2023-04-15T00:15:04.156Z,67.27
2023-04-15T00:16:07.181Z,67.49
2023-04-15T00:17:10.587Z,67.43
2023-04-15T00:18:45.749Z,67.62
2023-04-15T00:19:49.092Z,67.68
2023-04-15T00:20:51.971Z,67.81
2023-04-15T00:22:26.611Z,67.88
2023-04-15T00:23:29.776Z,67.87
2023-04-15T00:24:32.779Z,68.06
2023-04-15T00:26:07.399Z,68.15
2023-04-15T00:27:10.155Z,68.36
2023-04-15T00:28:12.957Z,68.39
2023-04-15T00:29:47.623Z,68.54
2023-04-15T00:30:50.734Z,68.70
2023-04-15T00:31:54.015Z,68.83
2023-04-15T00:33:28.860Z,68.95
2023-04-15T00:34:31.734Z,69.12
2023-04-15T00:35:34.657Z,69.16
2023-04-15T00:37:09.549Z,69.41
2023-04-15T00:38:12.530Z,69.43
2023-04-15T00:39:15.521Z,69.49
2023-04-15T00:40:50.214Z,69.66
2023-04-15T00:41:53.033Z,69.64
2023-04-15T00:42:55.964Z,69.61
2023-04-15T00:44:30.592Z,69.65
2023-04-15T00:45:33.588Z,69.83
2023-04-15T00:46:36.651Z,69.87
2023-04-15T00:48:11.632Z,69.95
2023-04-15T00:49:14.606Z,69.92
2023-04-15T00:50:17.522Z,69.94
2023-04-15T00:51:52.519Z,70.05
2023-04-15T00:52:55.394Z,70.06
2023-04-15T00:53:58.413Z,69.99
2023-04-15T00:55:33.164Z,70.20
2023-04-15T00:56:36.364Z,70.23
2023-04-15T00:57:39.194Z,70.23
2023-04-15T00:59:13.752Z,70.30
2023-04-15T01:00:18.086Z,70.39
2023-04-15T01:01:21.275Z,70.57
2023-04-15T01:02:24.872Z,70.64
2023-04-15T01:04:01.513Z,70.71
2023-04-15T01:05:05.531Z,70.72
2023-04-15T01:06:09.998Z,70.75
2023-04-15T01:07:45.032Z,70.85
2023-04-15T01:08:47.954Z,70.80
2023-04-15T01:09:51.433Z,70.80
2023-04-15T01:11:26.325Z,70.77
2023-04-15T01:12:29.260Z,70.95
2023-04-15T01:13:32.371Z,70.96
2023-04-15T01:15:07.041Z,70.97
2023-04-15T01:16:09.907Z,70.99
2023-04-15T01:17:13.278Z,71.11
2023-04-15T01:18:48.166Z,71.29
2023-04-15T01:19:51.352Z,71.34
2023-04-15T01:20:54.350Z,71.49
2023-04-15T01:22:29.126Z,71.50
2023-04-15T01:23:31.991Z,71.52
2023-04-15T01:24:35.138Z,71.49
2023-04-15T01:26:10.025Z,71.50
2023-04-15T01:27:13.025Z,71.54
2023-04-15T01:28:16.124Z,71.65
2023-04-15T01:29:50.676Z,71.83
2023-04-15T01:30:53.557Z,71.73
2023-04-15T01:31:56.948Z,71.65
2023-04-15T01:33:31.872Z,71.71
2023-04-15T01:34:35.834Z,71.90
2023-04-15T01:35:38.770Z,71.94
2023-04-15T01:37:13.514Z,72.00
2023-04-15T01:38:16.515Z,72.10
2023-04-15T01:39:19.701Z,72.18
2023-04-15T01:40:54.630Z,72.38
2023-04-15T01:41:57.693Z,72.45
2023-04-15T01:43:00.944Z,72.58
2023-04-15T01:44:36.188Z,72.67
2023-04-15T01:45:39.090Z,72.78
2023-04-15T01:46:42.231Z,72.78
2023-04-15T01:48:17.264Z,72.91
2023-04-15T01:49:20.057Z,72.89
2023-04-15T01:50:22.988Z,72.99
2023-04-15T01:51:57.627Z,73.04
2023-04-15T01:53:00.373Z,73.25
2023-04-15T01:54:03.408Z,73.35
2023-04-15T01:55:38.358Z,73.50
2023-04-15T01:56:41.232Z,73.59
2023-04-15T01:57:44.401Z,73.69
2023-04-15T01:59:19.100Z,73.86
2023-04-15T02:00:17.644Z,73.97
2023-04-15T02:01:21.044Z,74.06
2023-04-15T02:02:24.508Z,74.18
2023-04-15T02:04:00.552Z,74.30
2023-04-15T02:05:03.568Z,74.49
2023-04-15T02:06:06.467Z,74.41
2023-04-15T02:07:41.049Z,74.53
2023-04-15T02:08:43.803Z,74.57
2023-04-15T02:09:47.314Z,74.61
2023-04-15T02:11:21.924Z,74.73
2023-04-15T02:12:24.812Z,74.81
2023-04-15T02:13:27.860Z,74.72
2023-04-15T02:15:02.628Z,74.79
2023-04-15T02:16:05.645Z,74.87
2023-04-15T02:17:09.109Z,75.05
2023-04-15T02:18:44.183Z,75.37
2023-04-15T02:19:47.824Z,75.30
2023-04-15T02:20:50.615Z,75.42
2023-04-15T02:22:25.164Z,75.58
2023-04-15T02:23:28.114Z,75.68
2023-04-15T02:24:32.840Z,75.76
2023-04-15T02:26:07.508Z,75.99
2023-04-15T02:27:10.389Z,76.00
2023-04-15T02:28:13.379Z,76.05
2023-04-15T02:29:48.164Z,76.40
2023-04-15T02:30:51.193Z,76.28
2023-04-15T02:31:54.222Z,76.32
2023-04-15T02:33:29.383Z,76.39
2023-04-15T02:34:32.282Z,76.40
2023-04-15T02:35:35.210Z,76.51
2023-04-15T02:37:10.162Z,76.69
2023-04-15T02:38:13.231Z,76.61
2023-04-15T02:39:16.112Z,76.72
2023-04-15T02:40:50.965Z,76.76
2023-04-15T02:41:54.023Z,76.82
2023-04-15T02:42:56.918Z,76.96
2023-04-15T02:44:31.752Z,77.02
2023-04-15T02:45:34.806Z,77.21
2023-04-15T02:46:38.206Z,77.21
2023-04-15T02:48:12.833Z,77.25
2023-04-15T02:49:15.759Z,77.42
2023-04-15T02:50:18.770Z,77.49
2023-04-15T02:51:53.670Z,77.79
2023-04-15T02:52:56.567Z,77.85
2023-04-15T02:53:59.528Z,77.88
2023-04-15T02:55:34.382Z,77.97
2023-04-15T02:56:37.245Z,77.90
2023-04-15T02:57:40.093Z,77.93
2023-04-15T02:59:14.783Z,77.92
2023-04-15T03:00:17.193Z,78.04
2023-04-15T03:01:20.007Z,78.02
2023-04-15T03:02:23.728Z,78.17
2023-04-15T03:03:59.862Z,78.24
2023-04-15T03:05:03.640Z,78.20
2023-04-15T03:06:06.718Z,78.26
2023-04-15T03:07:41.789Z,78.41
2023-04-15T03:08:44.812Z,78.52
2023-04-15T03:09:48.271Z,78.54
2023-04-15T03:11:22.954Z,78.69
2023-04-15T03:12:27.997Z,78.75
2023-04-15T03:13:30.805Z,78.83
2023-04-15T03:15:05.534Z,78.81
2023-04-15T03:16:08.951Z,78.81
2023-04-15T03:17:12.021Z,78.82
2023-04-15T03:18:46.674Z,78.91
2023-04-15T03:19:49.867Z,79.00
2023-04-15T03:20:53.236Z,78.99
2023-04-15T03:22:28.110Z,79.22
2023-04-15T03:23:31.007Z,79.16
2023-04-15T03:24:34.041Z,79.24
2023-04-15T03:26:08.977Z,79.38
2023-04-15T03:27:12.298Z,79.49
2023-04-15T03:28:15.314Z,79.60
2023-04-15T03:29:49.952Z,79.94
2023-04-15T03:30:52.947Z,79.95
2023-04-15T03:31:56.259Z,79.96
2023-04-15T03:33:30.906Z,79.99
2023-04-15T03:34:34.003Z,80.05
2023-04-15T03:35:36.949Z,80.02
2023-04-15T03:37:11.610Z,80.07
2023-04-15T03:38:14.620Z,80.31
2023-04-15T03:39:17.504Z,80.40
2023-04-15T03:40:52.470Z,80.48
2023-04-15T03:41:55.760Z,80.57
2023-04-15T03:42:58.730Z,80.59
2023-04-15T03:44:33.527Z,80.67
2023-04-15T03:45:36.507Z,80.58
2023-04-15T03:46:42.301Z,80.77
2023-04-15T03:48:24.028Z,80.85
2023-04-15T03:49:27.030Z,80.94
2023-04-15T03:50:30.118Z,81.01
2023-04-15T03:52:04.571Z,81.23
2023-04-15T03:53:07.323Z,81.26
2023-04-15T03:54:10.286Z,81.35
2023-04-15T03:55:45.161Z,81.39
2023-04-15T03:56:48.130Z,81.44
2023-04-15T03:57:51.064Z,81.36
2023-04-15T03:59:25.979Z,81.55
2023-04-15T04:01:21.173Z,81.66
2023-04-15T04:02:24.763Z,81.67
2023-04-15T04:04:01.218Z,81.70
2023-04-15T04:05:47.260Z,81.84
2023-04-15T04:06:50.216Z,81.83
2023-04-15T04:07:53.386Z,81.89
2023-04-15T04:09:28.331Z,82.09
2023-04-15T04:10:33.819Z,82.03
2023-04-15T04:11:36.949Z,81.99
2023-04-15T04:13:11.719Z,82.07
2023-04-15T04:14:14.663Z,82.13
2023-04-15T04:15:17.609Z,82.05
2023-04-15T04:16:52.689Z,82.24
2023-04-15T04:17:56.159Z,82.36
2023-04-15T04:18:59.552Z,82.26
2023-04-15T04:20:34.658Z,82.31
2023-04-15T04:21:37.594Z,82.41
2023-04-15T04:22:40.715Z,82.41
2023-04-15T04:24:15.513Z,82.45
2023-04-15T04:25:18.579Z,82.57
2023-04-15T04:26:21.703Z,82.59
2023-04-15T04:27:56.389Z,82.69
2023-04-15T04:28:59.347Z,82.83
2023-04-15T04:30:02.340Z,82.97
2023-04-15T04:31:37.364Z,83.05
2023-04-15T04:32:40.878Z,83.12
2023-04-15T04:33:44.073Z,83.17
2023-04-15T04:35:18.969Z,83.26
2023-04-15T04:36:22.017Z,83.27
2023-04-15T04:37:24.979Z,83.26
2023-04-15T04:39:00.043Z,83.38
2023-04-15T04:40:03.409Z,83.36
2023-04-15T04:41:06.291Z,83.51
2023-04-15T04:42:44.252Z,83.56
2023-04-15T04:43:47.152Z,83.75
2023-04-15T04:44:50.021Z,83.69
2023-04-15T04:46:24.935Z,83.78
2023-04-15T04:47:27.918Z,83.85
2023-04-15T04:48:31.441Z,83.86
2023-04-15T04:50:06.771Z,83.88
2023-04-15T04:51:09.656Z,83.99
2023-04-15T04:52:12.740Z,84.07
2023-04-15T04:53:47.552Z,84.03
2023-04-15T04:54:50.548Z,84.09
2023-04-15T04:55:53.396Z,84.03
2023-04-15T04:57:28.065Z,84.08
2023-04-15T04:58:30.909Z,84.21
2023-04-15T04:59:33.855Z,84.13
2023-04-15T05:01:21.143Z,84.09
2023-04-15T05:02:24.914Z,84.12
2023-04-15T05:04:01.967Z,84.22
2023-04-15T05:05:05.609Z,84.26
2023-04-15T05:06:08.638Z,84.32
2023-04-15T05:07:43.465Z,84.30
2023-04-15T05:08:46.285Z,84.31
2023-04-15T05:09:49.716Z,84.37
2023-04-15T05:11:24.243Z,84.42
2023-04-15T05:12:27.154Z,84.55
2023-04-15T05:13:29.898Z,84.56
2023-04-15T05:15:04.457Z,84.67
2023-04-15T05:16:07.515Z,84.74
2023-04-15T05:17:10.616Z,84.77
2023-04-15T05:18:45.645Z,84.95
2023-04-15T05:19:49.149Z,85.00
2023-04-15T05:20:52.365Z,85.02
2023-04-15T05:22:27.240Z,85.00
2023-04-15T05:23:30.074Z,85.03
2023-04-15T05:24:32.873Z,85.11
2023-04-15T05:26:07.417Z,85.12
2023-04-15T05:27:10.289Z,85.15
2023-04-15T05:28:13.064Z,85.12
2023-04-15T05:29:47.827Z,85.11
2023-04-15T05:30:53.876Z,84.97
2023-04-15T05:31:57.077Z,85.02
2023-04-15T05:33:31.793Z,85.12
2023-04-15T05:34:34.788Z,85.09
2023-04-15T05:35:37.716Z,85.06
2023-04-15T05:37:12.492Z,84.96
2023-04-15T05:38:15.385Z,84.87
2023-04-15T05:39:18.416Z,84.85
2023-04-15T05:40:53.249Z,84.75
2023-04-15T05:41:58.814Z,84.70
2023-04-15T05:43:01.614Z,84.67
2023-04-15T05:44:36.313Z,84.61
2023-04-15T05:45:39.203Z,84.51
2023-04-15T05:46:42.438Z,84.48
2023-04-15T05:48:17.197Z,84.35
2023-04-15T05:49:20.055Z,84.26
2023-04-15T05:50:22.906Z,84.13
2023-04-15T05:51:57.942Z,83.97
2023-04-15T05:53:00.770Z,83.96
2023-04-15T05:54:03.882Z,83.88
2023-04-15T05:55:38.534Z,83.70
2023-04-15T05:56:41.453Z,83.59
2023-04-15T05:57:44.394Z,83.51
2023-04-15T05:59:18.905Z,83.33
2023-04-15T06:00:17.571Z,83.34
2023-04-15T06:01:20.326Z,83.39
2023-04-15T06:02:23.547Z,83.33
2023-04-15T06:03:59.695Z,83.34
2023-04-15T06:05:03.634Z,83.31
2023-04-15T06:06:07.066Z,83.37
2023-04-15T06:07:41.843Z,83.32
2023-04-15T06:08:46.217Z,83.21
2023-04-15T06:09:49.533Z,83.19
2023-04-15T06:11:24.270Z,83.12
2023-04-15T06:12:27.294Z,83.17
2023-04-15T06:13:30.346Z,83.17
2023-04-15T06:15:06.019Z,83.17
2023-04-15T06:16:08.870Z,83.09
2023-04-15T06:17:12.168Z,83.02
2023-04-15T06:18:46.972Z,83.07
2023-04-15T06:19:50.353Z,83.09
2023-04-15T06:20:53.369Z,83.02
2023-04-15T06:22:28.032Z,82.91
2023-04-15T06:23:33.588Z,82.83
2023-04-15T06:24:36.498Z,82.82
2023-04-15T06:26:11.277Z,82.76
2023-04-15T06:27:14.266Z,82.62
2023-04-15T06:28:17.262Z,82.58
2023-04-15T06:29:51.861Z,82.53
2023-04-15T06:30:54.832Z,82.47
2023-04-15T06:31:57.997Z,82.31
2023-04-15T06:33:32.842Z,82.30
2023-04-15T06:34:35.753Z,82.32
2023-04-15T06:35:39.130Z,82.20
2023-04-15T06:37:13.710Z,82.12
2023-04-15T06:38:16.550Z,82.04
2023-04-15T06:39:19.334Z,81.98
2023-04-15T06:40:54.198Z,82.03
2023-04-15T06:41:57.070Z,81.97
2023-04-15T06:43:00.106Z,81.96
2023-04-15T06:44:34.940Z,81.95
2023-04-15T06:45:38.237Z,81.89
2023-04-15T06:46:41.909Z,82.06
2023-04-15T06:48:16.386Z,81.81
2023-04-15T06:49:19.284Z,81.90
2023-04-15T06:50:22.132Z,81.85
2023-04-15T06:51:56.889Z,81.90
2023-04-15T06:52:59.911Z,81.90
2023-04-15T06:54:02.663Z,81.86
2023-04-15T06:55:37.466Z,81.84
2023-04-15T06:56:40.387Z,81.82
2023-04-15T06:57:43.344Z,81.89
2023-04-15T06:59:18.256Z,81.80
2023-04-15T07:00:17.992Z,81.76
2023-04-15T07:01:21.522Z,81.70
2023-04-15T07:02:24.852Z,81.86
2023-04-15T07:04:00.615Z,81.58
2023-04-15T07:05:03.852Z,81.35
2023-04-15T07:06:06.770Z,81.24
2023-04-15T07:07:41.505Z,80.96
2023-04-15T07:08:44.354Z,80.83
2023-04-15T07:09:47.888Z,80.82
2023-04-15T07:11:22.584Z,80.64
2023-04-15T07:12:25.428Z,80.54
2023-04-15T07:13:28.236Z,80.45
2023-04-15T07:15:02.834Z,80.19
2023-04-15T07:16:05.947Z,79.73
2023-04-15T07:17:10.596Z,79.44
2023-04-15T07:18:45.867Z,79.16
2023-04-15T07:19:49.329Z,79.10
2023-04-15T07:20:52.208Z,78.97
2023-04-15T07:22:26.950Z,79.08
2023-04-15T07:23:29.817Z,79.04
2023-04-15T07:24:32.649Z,78.68
2023-04-15T07:26:07.275Z,78.14
2023-04-15T07:27:10.026Z,77.95
2023-04-15T07:28:12.795Z,77.83
2023-04-15T07:29:47.464Z,77.39
2023-04-15T07:30:50.515Z,77.58
2023-04-15T07:31:53.840Z,77.47
2023-04-15T07:33:28.575Z,77.48
2023-04-15T07:34:32.673Z,77.42
2023-04-15T07:35:35.731Z,77.37
2023-04-15T07:37:10.369Z,77.48
2023-04-15T07:38:13.409Z,77.47
2023-04-15T07:39:16.261Z,77.30
2023-04-15T07:40:50.846Z,77.24
2023-04-15T07:41:53.780Z,77.25
2023-04-15T07:42:56.787Z,77.34
2023-04-15T07:44:31.333Z,77.28
2023-04-15T07:45:34.236Z,77.57
2023-04-15T07:46:37.458Z,77.14
2023-04-15T07:48:12.792Z,77.21
2023-04-15T07:49:17.987Z,77.06
2023-04-15T07:50:20.862Z,77.01
2023-04-15T07:51:55.834Z,76.91
2023-04-15T07:52:58.778Z,76.59
2023-04-15T07:54:01.626Z,76.45
2023-04-15T07:55:36.252Z,76.29
2023-04-15T07:56:39.033Z,76.01
2023-04-15T07:57:41.799Z,75.56
2023-04-15T07:59:16.470Z,75.92
2023-04-15T08:00:17.754Z,75.47
2023-04-15T08:01:20.760Z,75.39
2023-04-15T08:02:24.077Z,75.45
2023-04-15T08:04:03.689Z,74.86
2023-04-15T08:05:08.273Z,75.00
2023-04-15T08:06:11.847Z,74.89
2023-04-15T08:07:46.593Z,74.80
2023-04-15T08:08:49.397Z,74.29
2023-04-15T08:09:52.831Z,74.11
2023-04-15T08:11:27.479Z,74.37
2023-04-15T08:12:30.417Z,74.40
2023-04-15T08:13:33.220Z,74.50
2023-04-15T08:15:07.722Z,73.96
2023-04-15T08:16:10.635Z,74.17
2023-04-15T08:17:14.089Z,74.45
2023-04-15T08:18:48.931Z,74.28
2023-04-15T08:19:51.989Z,73.90
2023-04-15T08:20:54.907Z,73.67
2023-04-15T08:22:29.703Z,73.62
2023-04-15T08:23:32.996Z,73.87
2023-04-15T08:24:35.937Z,73.84
2023-04-15T08:26:13.436Z,73.76
2023-04-15T08:27:16.433Z,73.61
2023-04-15T08:28:19.302Z,73.27
2023-04-15T08:29:53.980Z,72.88
2023-04-15T08:30:57.073Z,72.97
2023-04-15T08:32:00.421Z,73.03
2023-04-15T08:33:35.402Z,72.88
2023-04-15T08:34:38.230Z,73.24
2023-04-15T08:35:41.185Z,73.46
2023-04-15T08:37:18.268Z,73.50
2023-04-15T08:38:21.160Z,73.64
2023-04-15T08:39:24.297Z,73.92
2023-04-15T08:40:59.380Z,73.74
2023-04-15T08:42:02.217Z,73.64
2023-04-15T08:43:05.704Z,73.69
2023-04-15T08:44:41.156Z,74.19
2023-04-15T08:45:43.985Z,74.09
2023-04-15T08:46:47.000Z,74.27
2023-04-15T08:48:22.184Z,74.09
2023-04-15T08:49:24.902Z,74.31
2023-04-15T08:50:27.821Z,74.05
2023-04-15T08:52:02.570Z,74.09
2023-04-15T08:53:05.397Z,74.17
2023-04-15T08:54:08.232Z,74.38
2023-04-15T08:55:43.276Z,74.53
2023-04-15T08:56:46.484Z,74.58
2023-04-15T08:57:49.579Z,74.39
2023-04-15T08:59:24.435Z,74.21
2023-04-15T09:01:21.510Z,73.80
2023-04-15T09:02:24.966Z,73.25
2023-04-15T09:04:00.947Z,73.52
2023-04-15T09:05:04.540Z,73.67
2023-04-15T09:06:07.388Z,73.64
2023-04-15T09:07:42.198Z,73.53
2023-04-15T09:08:45.235Z,73.40
2023-04-15T09:09:48.655Z,73.73
2023-04-15T09:11:25.683Z,73.50
2023-04-15T09:12:28.811Z,73.30
2023-04-15T09:13:31.751Z,73.13
2023-04-15T09:15:06.733Z,73.35
2023-04-15T09:16:09.731Z,72.75
2023-04-15T09:17:13.117Z,72.18
2023-04-15T09:18:48.079Z,71.98
2023-04-15T09:19:51.173Z,71.64
2023-04-15T09:20:54.115Z,71.40
2023-04-15T09:22:28.794Z,71.40
2023-04-15T09:23:31.685Z,70.49
2023-04-15T09:24:34.425Z,70.49
2023-04-15T09:26:09.066Z,70.90
2023-04-15T09:27:11.909Z,70.90
2023-04-15T09:28:14.985Z,71.12
2023-04-15T09:29:50.310Z,71.44
2023-04-15T09:30:56.174Z,71.28
2023-04-15T09:31:59.564Z,71.78
2023-04-15T09:33:34.673Z,71.78
2023-04-15T09:34:37.757Z,71.32
2023-04-15T09:35:40.810Z,71.07
2023-04-15T09:37:29.009Z,70.35
2023-04-15T09:38:34.444Z,68.47
2023-04-15T09:39:37.505Z,68.95
2023-04-15T09:41:12.007Z,69.14
2023-04-15T09:42:14.833Z,68.88
2023-04-15T09:43:17.638Z,68.89
2023-04-15T09:44:52.453Z,68.85
2023-04-15T09:45:55.461Z,68.56
2023-04-15T09:46:59.027Z,68.17
2023-04-15T09:48:34.218Z,68.09
2023-04-15T09:49:37.239Z,67.76
2023-04-15T09:50:40.455Z,68.04
2023-04-15T09:52:15.321Z,68.43
2023-04-15T09:53:18.376Z,68.23
2023-04-15T09:54:23.637Z,68.23
2023-04-15T09:55:58.283Z,67.55
2023-04-15T09:57:01.324Z,67.58
2023-04-15T09:58:04.099Z,67.54
2023-04-15T09:59:38.913Z,68.22
2023-04-15T10:01:20.873Z,68.78
2023-04-15T10:02:24.478Z,68.81
2023-04-15T10:04:01.058Z,69.26
2023-04-15T10:05:05.801Z,69.21
2023-04-15T10:06:10.288Z,68.78
2023-04-15T10:07:45.045Z,69.25
2023-04-15T10:08:48.045Z,68.78
2023-04-15T10:09:50.963Z,69.03
2023-04-15T10:11:25.809Z,68.92
2023-04-15T10:12:29.141Z,68.96
2023-04-15T10:13:32.106Z,69.18
2023-04-15T10:15:06.966Z,68.81
2023-04-15T10:16:09.945Z,69.16
2023-04-15T10:17:13.569Z,69.34
2023-04-15T10:18:50.076Z,68.49
2023-04-15T10:19:53.034Z,67.47
2023-04-15T10:20:56.132Z,67.67
2023-04-15T10:22:31.016Z,67.35
2023-04-15T10:23:34.010Z,67.42
2023-04-15T10:24:36.894Z,67.83
2023-04-15T10:26:11.618Z,67.15
2023-04-15T10:27:14.469Z,66.89
2023-04-15T10:28:17.378Z,67.62
2023-04-15T10:29:52.000Z,67.64
2023-04-15T10:30:55.140Z,67.61
2023-04-15T10:31:58.325Z,67.00
2023-04-15T10:33:33.138Z,67.20
2023-04-15T10:34:36.170Z,66.76
2023-04-15T10:35:40.830Z,66.68
2023-04-15T10:37:15.724Z,65.14
2023-04-15T10:38:18.690Z,64.35
2023-04-15T10:39:21.865Z,63.60
2023-04-15T10:40:56.697Z,63.98
2023-04-15T10:42:01.384Z,63.28
2023-04-15T10:43:04.330Z,63.81
2023-04-15T10:44:39.192Z,64.15
2023-04-15T10:45:42.126Z,64.00
2023-04-15T10:46:45.258Z,64.47
2023-04-15T10:48:20.196Z,64.07
2023-04-15T10:49:23.262Z,64.86
2023-04-15T10:50:26.080Z,65.25
2023-04-15T10:52:00.665Z,65.16
2023-04-15T10:53:03.487Z,65.81
2023-04-15T10:54:08.100Z,65.91
2023-04-15T10:55:42.853Z,65.26
2023-04-15T10:56:45.878Z,65.46
2023-04-15T10:57:48.730Z,65.31
2023-04-15T10:59:23.717Z,65.28
2023-04-15T11:01:20.697Z,65.34
2023-04-15T11:02:24.099Z,65.22
2023-04-15T11:04:00.752Z,65.49
2023-04-15T11:05:04.775Z,65.68
2023-04-15T11:06:07.653Z,65.46
2023-04-15T11:07:42.428Z,64.79
2023-04-15T11:08:45.301Z,63.99
2023-04-15T11:09:48.387Z,64.91
2023-04-15T11:11:23.051Z,65.09
2023-04-15T11:12:26.902Z,65.36
2023-04-15T11:13:29.862Z,65.07
2023-04-15T11:15:04.690Z,65.20
2023-04-15T11:16:08.012Z,65.48
2023-04-15T11:17:11.077Z,65.14
2023-04-15T11:18:46.046Z,65.78
2023-04-15T11:19:48.898Z,65.80
2023-04-15T11:20:52.039Z,65.36
2023-04-15T11:22:26.762Z,65.72
2023-04-15T11:23:29.782Z,66.00
2023-04-15T11:24:32.881Z,66.27
2023-04-15T11:26:07.588Z,67.05
2023-04-15T11:27:10.798Z,67.41
2023-04-15T11:28:13.974Z,66.85
2023-04-15T11:29:51.080Z,66.96
2023-04-15T11:30:54.079Z,67.21
2023-04-15T11:31:57.347Z,67.05
2023-04-15T11:33:32.864Z,66.20
2023-04-15T11:34:36.264Z,65.95
2023-04-15T11:35:39.232Z,66.00
2023-04-15T11:37:13.727Z,65.92
2023-04-15T11:38:16.732Z,65.61
2023-04-15T11:39:19.684Z,66.28
2023-04-15T11:40:54.474Z,66.71
2023-04-15T11:41:57.385Z,66.80
2023-04-15T11:43:00.293Z,66.87
2023-04-15T11:44:35.259Z,67.33
2023-04-15T11:45:38.469Z,67.26
2023-04-15T11:46:43.031Z,66.95
2023-04-15T11:48:19.292Z,67.04
2023-04-15T11:49:22.110Z,67.16
2023-04-15T11:50:25.053Z,66.73
2023-04-15T11:51:59.933Z,66.11
2023-04-15T11:53:02.759Z,66.11
2023-04-15T11:54:06.503Z,66.42
2023-04-15T11:55:41.314Z,66.05
2023-04-15T11:56:44.302Z,65.69
2023-04-15T11:57:47.121Z,65.22
2023-04-15T11:59:21.866Z,65.21
2023-04-15T12:00:18.080Z,65.42
2023-04-15T12:01:21.163Z,65.98
2023-04-15T12:02:24.482Z,65.83
2023-04-15T12:04:00.947Z,65.97
2023-04-15T12:05:09.267Z,67.12
2023-04-15T12:06:12.631Z,66.37
2023-04-15T12:07:47.468Z,65.58
2023-04-15T12:08:50.390Z,65.57
2023-04-15T12:09:53.390Z,64.95
2023-04-15T12:11:28.379Z,63.35
2023-04-15T12:12:31.346Z,64.80
2023-04-15T12:13:34.170Z,64.73
2023-04-15T12:15:08.732Z,63.31
2023-04-15T12:16:11.652Z,64.29
2023-04-15T12:17:28.362Z,64.03
2023-04-15T12:19:23.895Z,63.73
2023-04-15T12:20:27.072Z,63.56
2023-04-15T12:21:30.273Z,63.78
2023-04-15T12:23:05.191Z,64.09
2023-04-15T12:24:08.730Z,62.97
2023-04-15T12:25:11.723Z,63.55
2023-04-15T12:26:46.417Z,62.89
2023-04-15T12:27:49.251Z,63.10
2023-04-15T12:28:52.064Z,63.06
2023-04-15T12:30:26.758Z,63.76
2023-04-15T12:31:29.943Z,63.64
2023-04-15T12:32:33.418Z,63.51
2023-04-15T12:34:11.141Z,63.74
2023-04-15T12:35:14.261Z,63.47
2023-04-15T12:36:17.289Z,63.22
2023-04-15T12:37:52.235Z,62.58
2023-04-15T12:38:55.359Z,62.56
2023-04-15T12:39:58.293Z,62.58
2023-04-15T12:41:33.249Z,62.34
2023-04-15T12:42:36.392Z,62.89
2023-04-15T12:43:39.310Z,63.14
2023-04-15T12:45:14.566Z,62.45
2023-04-15T12:46:17.538Z,62.75
2023-04-15T12:47:20.791Z,63.00
2023-04-15T12:48:55.605Z,63.28
2023-04-15T12:49:58.440Z,63.74
2023-04-15T12:51:01.775Z,63.46
2023-04-15T12:52:37.232Z,64.28
2023-04-15T12:53:40.101Z,65.17
2023-04-15T12:54:43.693Z,64.82
2023-04-15T12:56:18.576Z,63.98
2023-04-15T12:57:21.481Z,64.26
2023-04-15T12:58:24.598Z,64.74
2023-04-15T12:59:59.456Z,64.81
2023-04-15T13:00:17.964Z,64.81
2023-04-15T13:01:21.158Z,65.29
2023-04-15T13:02:24.694Z,65.21
2023-04-15T13:04:01.262Z,65.44
2023-04-15T13:05:05.464Z,65.64
2023-04-15T13:06:08.390Z,65.57
2023-04-15T13:07:43.300Z,65.78
2023-04-15T13:08:58.833Z,65.68
2023-04-15T13:10:03.647Z,66.22
2023-04-15T13:11:38.451Z,66.07
2023-04-15T13:12:41.655Z,65.26
2023-04-15T13:13:44.662Z,65.48
2023-04-15T13:15:19.913Z,65.88
2023-04-15T13:16:22.935Z,66.20
2023-04-15T13:17:26.355Z,66.42
2023-04-15T13:19:01.307Z,66.91
2023-04-15T13:20:04.212Z,67.07
2023-04-15T13:21:08.569Z,67.35
2023-04-15T13:22:43.047Z,67.40
2023-04-15T13:23:45.926Z,67.27
2023-04-15T13:24:49.526Z,67.21
2023-04-15T13:26:24.537Z,67.03
2023-04-15T13:27:30.802Z,67.36
2023-04-15T13:28:33.834Z,67.30
2023-04-15T13:30:08.604Z,67.89
2023-04-15T13:31:11.652Z,68.11
2023-04-15T13:32:15.016Z,67.72
2023-04-15T13:33:50.145Z,68.13
2023-04-15T13:34:53.587Z,68.12
2023-04-15T13:35:56.421Z,68.31
2023-04-15T13:37:31.445Z,67.92
2023-04-15T13:38:34.322Z,68.46
2023-04-15T13:39:37.676Z,68.78
2023-04-15T13:41:12.336Z,68.52
2023-04-15T13:42:15.144Z,68.55
2023-04-15T13:43:17.891Z,68.70
2023-04-15T13:44:52.765Z,68.86
2023-04-15T13:45:55.832Z,69.08
2023-04-15T13:46:59.668Z,69.24
2023-04-15T13:48:34.419Z,68.95
2023-04-15T13:49:37.391Z,68.90
2023-04-15T13:50:41.732Z,69.27
2023-04-15T13:52:16.815Z,69.89
2023-04-15T13:53:19.592Z,69.85
2023-04-15T13:54:43.755Z,70.18
2023-04-15T13:56:50.172Z,70.49
2023-04-15T13:57:53.252Z,70.72
2023-04-15T13:58:56.051Z,70.82
2023-04-15T14:00:16.832Z,70.77
2023-04-15T14:01:19.754Z,70.53
2023-04-15T14:02:23.621Z,70.80
2023-04-15T14:03:59.697Z,71.06
2023-04-15T14:05:04.245Z,71.06
2023-04-15T14:06:07.183Z,70.99
2023-04-15T14:07:42.013Z,71.58
2023-04-15T14:08:44.970Z,71.81
2023-04-15T14:09:49.181Z,71.92
2023-04-15T14:11:23.803Z,72.06
2023-04-15T14:12:26.757Z,71.61
2023-04-15T14:13:29.611Z,71.40
2023-04-15T14:15:04.250Z,71.56
2023-04-15T14:16:07.192Z,71.61
2023-04-15T14:17:10.264Z,71.54
2023-04-15T14:18:45.108Z,71.28
2023-04-15T14:19:48.986Z,71.46
2023-04-15T14:20:51.826Z,71.69
2023-04-15T14:22:26.539Z,71.42
2023-04-15T14:23:29.387Z,70.73
2023-04-15T14:24:32.583Z,70.50
2023-04-15T14:26:07.624Z,71.16
2023-04-15T14:27:10.534Z,70.89
2023-04-15T14:28:13.438Z,70.76
2023-04-15T14:29:48.096Z,70.80
2023-04-15T14:30:50.953Z,71.15
2023-04-15T14:32:17.434Z,70.68
2023-04-15T14:33:52.514Z,71.36
2023-04-15T14:34:55.820Z,71.09
2023-04-15T14:35:58.903Z,71.47
2023-04-15T14:37:33.692Z,71.67
2023-04-15T14:38:36.759Z,72.24
2023-04-15T14:39:40.604Z,72.07
2023-04-15T14:41:15.743Z,71.71
2023-04-15T14:42:18.814Z,71.46
2023-04-15T14:43:21.724Z,70.99
2023-04-15T14:44:56.456Z,70.85
2023-04-15T14:45:59.534Z,70.69
2023-04-15T14:47:02.794Z,71.13
2023-04-15T14:48:37.863Z,71.32
2023-04-15T14:49:40.724Z,71.30
2023-04-15T14:50:43.874Z,71.30
2023-04-15T14:52:18.667Z,72.01
2023-04-15T14:53:21.715Z,72.01
2023-04-15T14:54:26.814Z,72.01
2023-04-15T14:56:01.724Z,72.72
2023-04-15T14:57:04.654Z,72.72
2023-04-15T14:58:07.970Z,72.72
2023-04-15T14:59:43.368Z,72.72
2023-04-15T15:01:25.022Z,72.72
2023-04-15T15:02:45.232Z,74.02
2023-04-15T15:04:20.804Z,73.81
2023-04-15T15:05:24.546Z,74.15
2023-04-15T15:06:28.517Z,74.15
2023-04-15T15:08:06.459Z,73.90
2023-04-15T15:09:10.085Z,73.60
2023-04-15T15:10:15.493Z,73.42
2023-04-15T15:12:18.300Z,73.37
2023-04-15T15:13:21.243Z,73.62
2023-04-15T15:14:24.390Z,73.63
2023-04-15T15:16:10.967Z,72.80
2023-04-15T15:17:15.344Z,73.08
2023-04-15T15:18:19.124Z,72.84
2023-04-15T15:19:54.253Z,73.07
2023-04-15T15:20:57.221Z,73.48
2023-04-15T15:22:00.165Z,73.48
2023-04-15T15:23:36.910Z,73.28
2023-04-15T15:24:39.866Z,73.60
2023-04-15T15:25:43.070Z,73.83
2023-04-15T15:27:17.977Z,73.75
2023-04-15T15:28:23.889Z,73.79
2023-04-15T15:29:26.983Z,73.79
2023-04-15T15:31:02.128Z,74.30
2023-04-15T15:32:05.393Z,73.80
2023-04-15T15:33:08.557Z,74.09
2023-04-15T15:34:43.321Z,74.15
2023-04-15T15:35:46.372Z,74.47
2023-04-15T15:36:49.268Z,74.47
2023-04-15T15:38:24.167Z,74.11
2023-04-15T15:39:27.253Z,74.11
2023-04-15T15:40:30.047Z,74.11
2023-04-15T15:42:04.793Z,74.70
2023-04-15T15:43:07.644Z,75.01
2023-04-15T15:44:10.699Z,75.01
2023-04-15T15:45:47.059Z,74.75
2023-04-15T15:46:50.189Z,74.76
2023-04-15T15:47:53.700Z,74.80
2023-04-15T15:49:28.737Z,74.93
2023-04-15T15:50:31.679Z,74.77
2023-04-15T15:51:34.457Z,74.85
2023-04-15T15:53:09.498Z,74.68
2023-04-15T15:54:12.397Z,74.63
2023-04-15T15:55:15.196Z,74.68